createdAt,value
2023-01-22T00:00:03.818Z,7.55
2023-01-22T00:01:35.487Z,7.59
2023-01-22T00:03:07.085Z,7.61
2023-01-22T00:04:39.027Z,7.64
2023-01-22T00:06:10.751Z,7.64
2023-01-22T00:07:42.337Z,7.64
2023-01-22T00:09:15.791Z,7.70
2023-01-22T00:10:53.904Z,7.74
2023-01-22T00:12:25.537Z,7.77
2023-01-22T00:13:57.095Z,7.80
2023-01-22T00:15:28.651Z,7.83
2023-01-22T00:17:00.633Z,7.86
2023-01-22T00:18:32.271Z,7.90
2023-01-22T00:20:05.105Z,7.92
2023-01-22T00:21:36.581Z,7.95
2023-01-22T00:23:08.172Z,7.96
2023-01-22T00:24:42.498Z,7.97
2023-01-22T00:26:15.595Z,8.02
2023-01-22T00:27:47.776Z,8.07
2023-01-22T00:29:19.251Z,8.12
2023-01-22T00:30:56.822Z,8.15
2023-01-22T00:32:28.491Z,8.23
2023-01-22T00:34:00.079Z,8.31
2023-01-22T00:35:31.605Z,8.39
2023-01-22T00:37:03.126Z,8.45
2023-01-22T00:38:34.722Z,8.50
2023-01-22T00:40:06.421Z,8.51
2023-01-22T00:41:38.255Z,8.54
2023-01-22T00:43:09.759Z,8.55
2023-01-22T00:44:41.343Z,8.58
2023-01-22T00:46:13.532Z,8.57
2023-01-22T00:47:45.095Z,8.52
2023-01-22T00:49:16.673Z,8.45
2023-01-22T00:50:48.557Z,8.40
2023-01-22T00:52:20.060Z,8.37
2023-01-22T00:53:51.764Z,8.41
2023-01-22T00:55:23.549Z,8.45
2023-01-22T00:56:55.132Z,8.55
2023-01-22T00:58:26.897Z,8.63
2023-01-22T00:59:58.525Z,8.66
2023-01-22T01:01:30.069Z,8.65
2023-01-22T01:03:20.251Z,8.65
2023-01-22T01:04:51.843Z,8.61
2023-01-22T01:06:23.297Z,8.59
2023-01-22T01:07:54.881Z,8.56
2023-01-22T01:09:26.292Z,8.53
2023-01-22T01:10:58.737Z,8.49
2023-01-22T01:12:30.548Z,8.47
2023-01-22T01:14:02.214Z,8.49
2023-01-22T01:15:34.893Z,8.49
2023-01-22T01:17:06.436Z,8.56
2023-01-22T01:18:37.993Z,8.63
2023-01-22T01:20:10.013Z,8.67
2023-01-22T01:21:41.787Z,8.69
2023-01-22T01:23:13.436Z,8.68
2023-01-22T01:24:44.963Z,8.62
2023-01-22T01:26:16.692Z,8.59
2023-01-22T01:27:48.135Z,8.56
2023-01-22T01:29:19.947Z,8.54
2023-01-22T01:30:51.632Z,8.54
2023-01-22T01:32:23.217Z,8.56
2023-01-22T01:33:54.820Z,8.51
2023-01-22T01:35:26.379Z,8.49
2023-01-22T01:36:57.900Z,8.46
2023-01-22T01:38:29.585Z,8.44
2023-01-22T01:40:01.167Z,8.46
2023-01-22T01:41:32.868Z,8.48
2023-01-22T01:43:04.541Z,8.50
2023-01-22T01:44:36.703Z,8.51
2023-01-22T01:46:20.866Z,8.52
2023-01-22T01:48:04.458Z,8.52
2023-01-22T01:49:41.481Z,8.53
2023-01-22T01:51:29.390Z,8.54
2023-01-22T01:53:01.099Z,8.51
2023-01-22T01:54:32.731Z,8.47
2023-01-22T01:56:05.782Z,8.40
2023-01-22T01:57:37.308Z,8.33
2023-01-22T01:59:09.442Z,8.25
2023-01-22T02:00:41.031Z,8.23
2023-01-22T02:02:12.619Z,8.21
2023-01-22T02:03:44.476Z,8.17
2023-01-22T02:05:20.620Z,8.15
2023-01-22T02:06:52.195Z,8.15
2023-01-22T02:08:23.879Z,8.16
2023-01-22T02:09:55.608Z,8.12
2023-01-22T02:11:27.861Z,8.08
2023-01-22T02:13:01.734Z,8.06
2023-01-22T02:14:34.095Z,8.03
2023-01-22T02:16:06.303Z,7.99
2023-01-22T02:17:37.952Z,7.96
2023-01-22T02:19:09.620Z,7.96
2023-01-22T02:20:41.682Z,7.97
2023-01-22T02:22:23.379Z,8.01
2023-01-22T02:23:54.912Z,7.99
2023-01-22T02:25:26.635Z,7.97
2023-01-22T02:26:58.229Z,7.98
2023-01-22T02:28:29.902Z,7.96
2023-01-22T02:30:01.692Z,7.95
2023-01-22T02:31:33.276Z,7.94
2023-01-22T02:33:04.876Z,7.93
2023-01-22T02:34:36.600Z,7.87
2023-01-22T02:36:08.387Z,7.84
2023-01-22T02:37:39.838Z,7.82
2023-01-22T02:39:11.378Z,7.80
2023-01-22T02:40:49.562Z,7.81
2023-01-22T02:42:21.154Z,7.79
2023-01-22T02:43:52.859Z,7.78
2023-01-22T02:45:24.578Z,7.78
2023-01-22T02:46:56.114Z,7.79
2023-01-22T02:48:27.623Z,7.76
2023-01-22T02:49:59.582Z,7.77
2023-01-22T02:51:31.258Z,7.77
2023-01-22T02:53:02.807Z,7.73
2023-01-22T02:54:35.060Z,7.70
2023-01-22T02:56:07.617Z,7.71
2023-01-22T02:57:39.133Z,7.69
2023-01-22T02:59:10.633Z,7.63
2023-01-22T03:00:42.374Z,7.59
2023-01-22T03:02:14.457Z,7.59
2023-01-22T03:03:55.980Z,7.58
2023-01-22T03:05:28.188Z,7.59
2023-01-22T03:06:59.742Z,7.63
2023-01-22T03:08:31.368Z,7.62
2023-01-22T03:10:02.916Z,7.63
2023-01-22T03:11:34.796Z,7.62
2023-01-22T03:13:25.306Z,7.67
2023-01-22T03:15:15.415Z,7.65
2023-01-22T03:17:05.294Z,7.65
2023-01-22T03:18:55.581Z,7.65
2023-01-22T03:20:45.776Z,7.64
2023-01-22T03:22:17.656Z,7.66
2023-01-22T03:23:50.238Z,7.70
2023-01-22T03:25:22.069Z,7.66
2023-01-22T03:26:53.652Z,7.61
2023-01-22T03:28:26.577Z,7.60
2023-01-22T03:29:58.172Z,7.59
2023-01-22T03:31:29.779Z,7.59
2023-01-22T03:33:01.381Z,7.57
2023-01-22T03:34:32.928Z,7.58
2023-01-22T03:36:05.455Z,7.64
2023-01-22T03:37:36.867Z,7.64
2023-01-22T03:39:08.429Z,7.60
2023-01-22T03:40:39.857Z,7.54
2023-01-22T03:42:11.509Z,7.46
2023-01-22T03:43:43.135Z,7.45
2023-01-22T03:45:14.729Z,7.41
2023-01-22T03:46:46.436Z,7.42
2023-01-22T03:48:18.032Z,7.45
2023-01-22T03:49:49.531Z,7.47
2023-01-22T03:51:21.350Z,7.47
2023-01-22T03:52:52.862Z,7.51
2023-01-22T03:54:24.425Z,7.49
2023-01-22T03:55:56.534Z,7.50
2023-01-22T03:57:28.055Z,7.47
2023-01-22T03:58:59.618Z,7.46
2023-01-22T04:00:31.200Z,7.47
2023-01-22T04:02:02.863Z,7.51
2023-01-22T04:03:34.552Z,7.55
2023-01-22T04:05:06.568Z,7.54
2023-01-22T04:06:38.103Z,7.51
2023-01-22T04:08:09.591Z,7.46
2023-01-22T04:09:41.209Z,7.44
2023-01-22T04:11:12.795Z,7.43
2023-01-22T04:12:44.692Z,7.44
2023-01-22T04:14:16.665Z,7.45
2023-01-22T04:15:48.210Z,7.46
2023-01-22T04:17:19.699Z,7.45
2023-01-22T04:18:51.287Z,7.45
2023-01-22T04:20:22.762Z,7.44
2023-01-22T04:21:54.451Z,7.43
2023-01-22T04:23:26.372Z,7.42
2023-01-22T04:24:57.943Z,7.39
2023-01-22T04:26:29.430Z,7.37
2023-01-22T04:28:01.024Z,7.30
2023-01-22T04:29:32.573Z,7.21
2023-01-22T04:31:04.949Z,7.08
2023-01-22T04:32:36.501Z,6.99
2023-01-22T04:34:08.035Z,6.96
2023-01-22T04:35:39.861Z,6.93
2023-01-22T04:37:11.438Z,6.92
2023-01-22T04:38:43.032Z,6.90
2023-01-22T04:40:14.793Z,6.89
2023-01-22T04:41:46.497Z,6.90
2023-01-22T04:43:18.104Z,6.87
2023-01-22T04:44:49.651Z,6.88
2023-01-22T04:46:21.229Z,6.93
2023-01-22T04:47:52.804Z,6.97
2023-01-22T04:49:24.426Z,7.03
2023-01-22T04:50:55.898Z,7.01
2023-01-22T04:52:27.590Z,7.04
2023-01-22T04:53:59.183Z,7.08
2023-01-22T04:55:30.661Z,7.09
2023-01-22T04:57:02.277Z,7.08
2023-01-22T04:58:33.888Z,7.05
2023-01-22T05:00:05.714Z,7.02
2023-01-22T05:01:37.319Z,7.00
2023-01-22T05:03:10.049Z,6.98
2023-01-22T05:04:41.673Z,6.95
2023-01-22T05:06:13.732Z,6.97
2023-01-22T05:07:45.280Z,6.99
2023-01-22T05:09:16.960Z,7.00
2023-01-22T05:10:48.864Z,6.97
2023-01-22T05:12:20.348Z,6.95
2023-01-22T05:13:52.335Z,6.95
2023-01-22T05:15:25.187Z,6.96
2023-01-22T05:16:57.045Z,7.01
2023-01-22T05:18:28.720Z,7.04
2023-01-22T05:20:00.236Z,7.11
2023-01-22T05:21:31.838Z,7.17
2023-01-22T05:23:03.509Z,7.22
2023-01-22T05:24:35.012Z,7.21
2023-01-22T05:26:06.531Z,7.19
2023-01-22T05:27:38.045Z,7.20
2023-01-22T05:29:09.605Z,7.18
2023-01-22T05:30:41.287Z,7.16
2023-01-22T05:32:13.981Z,7.14
2023-01-22T05:33:45.610Z,7.15
2023-01-22T05:35:17.188Z,7.16
2023-01-22T05:36:48.991Z,7.18
2023-01-22T05:38:20.456Z,7.22
2023-01-22T05:39:51.977Z,7.21
2023-01-22T05:41:24.045Z,7.19
2023-01-22T05:42:55.813Z,7.18
2023-01-22T05:44:27.262Z,7.19
2023-01-22T05:46:01.953Z,7.21
2023-01-22T05:47:33.495Z,7.24
2023-01-22T05:49:06.331Z,7.29
2023-01-22T05:50:37.987Z,7.33
2023-01-22T05:52:12.251Z,7.36
2023-01-22T05:53:43.829Z,7.44
2023-01-22T05:55:15.513Z,7.52
2023-01-22T05:56:47.258Z,7.55
2023-01-22T05:58:19.020Z,7.61
2023-01-22T05:59:51.151Z,7.69
2023-01-22T06:01:22.730Z,7.73
2023-01-22T06:02:57.421Z,7.75
2023-01-22T06:04:29.124Z,7.73
2023-01-22T06:06:01.273Z,7.73
2023-01-22T06:07:32.838Z,7.70
2023-01-22T06:09:04.415Z,7.60
2023-01-22T06:10:36.981Z,7.51
2023-01-22T06:12:08.500Z,7.43
2023-01-22T06:13:40.075Z,7.38
2023-01-22T06:15:11.962Z,7.37
2023-01-22T06:16:43.750Z,7.31
2023-01-22T06:18:15.358Z,7.27
2023-01-22T06:19:46.918Z,7.19
2023-01-22T06:21:18.452Z,7.15
2023-01-22T06:22:50.816Z,7.17
2023-01-22T06:24:22.394Z,7.25
2023-01-22T06:25:54.416Z,7.33
2023-01-22T06:27:25.935Z,7.45
2023-01-22T06:28:57.586Z,7.57
2023-01-22T06:30:29.460Z,7.74
2023-01-22T06:32:01.044Z,7.90
2023-01-22T06:33:33.752Z,8.04
2023-01-22T06:35:06.166Z,8.18
2023-01-22T06:36:37.992Z,8.34
2023-01-22T06:38:09.697Z,8.49
2023-01-22T06:39:41.717Z,8.65
2023-01-22T06:41:13.299Z,8.74
2023-01-22T06:42:44.934Z,8.84
2023-01-22T06:44:17.950Z,8.97
2023-01-22T06:45:49.777Z,9.06
2023-01-22T06:47:21.637Z,9.17
2023-01-22T06:48:53.454Z,9.30
2023-01-22T06:50:25.952Z,9.44
2023-01-22T06:51:57.639Z,9.56
2023-01-22T06:53:29.492Z,9.69
2023-01-22T06:55:01.266Z,9.82
2023-01-22T06:56:33.085Z,9.89
2023-01-22T06:58:04.731Z,9.91
2023-01-22T06:59:37.271Z,9.77
2023-01-22T07:01:09.546Z,9.50
2023-01-22T07:02:41.292Z,9.32
2023-01-22T07:04:13.113Z,9.30
2023-01-22T07:05:44.823Z,9.36
2023-01-22T07:07:16.643Z,9.44
2023-01-22T07:08:50.809Z,9.52
2023-01-22T07:10:22.505Z,9.55
2023-01-22T07:11:54.593Z,9.65
2023-01-22T07:13:26.192Z,9.68
2023-01-22T07:14:57.817Z,9.73
2023-01-22T07:16:29.695Z,9.80
2023-01-22T07:18:01.324Z,9.84
2023-01-22T07:19:33.101Z,9.68
2023-01-22T07:21:05.033Z,9.56
2023-01-22T07:22:36.844Z,9.36
2023-01-22T07:24:08.916Z,9.22
2023-01-22T07:25:41.091Z,9.13
2023-01-22T07:27:12.723Z,9.15
2023-01-22T07:28:45.182Z,9.13
2023-01-22T07:30:17.176Z,9.20
2023-01-22T07:31:49.923Z,9.23
2023-01-22T07:33:21.626Z,9.20
2023-01-22T07:34:53.265Z,9.19
2023-01-22T07:36:24.884Z,9.22
2023-01-22T07:37:58.675Z,9.24
2023-01-22T07:39:30.224Z,9.25
2023-01-22T07:41:13.929Z,9.25
2023-01-22T07:42:52.387Z,9.28
2023-01-22T07:44:23.934Z,9.36
2023-01-22T07:45:55.745Z,9.44
2023-01-22T07:47:27.383Z,9.55
2023-01-22T07:48:58.959Z,9.50
2023-01-22T07:50:30.971Z,9.48
2023-01-22T07:52:02.507Z,9.45
2023-01-22T07:53:34.162Z,9.35
2023-01-22T07:55:06.107Z,9.35
2023-01-22T07:56:37.648Z,9.33
2023-01-22T07:58:10.324Z,9.32
2023-01-22T07:59:41.996Z,9.29
2023-01-22T08:01:14.331Z,9.26
2023-01-22T08:02:46.290Z,9.23
2023-01-22T08:04:18.043Z,9.23
2023-01-22T08:05:49.660Z,9.22
2023-01-22T08:07:23.134Z,9.24
2023-01-22T08:08:54.791Z,9.26
2023-01-22T08:10:26.403Z,9.23
2023-01-22T08:11:58.009Z,9.26
2023-01-22T08:13:29.635Z,9.30
2023-01-22T08:15:01.211Z,9.32
2023-01-22T08:16:33.005Z,9.34
2023-01-22T08:18:04.700Z,9.36
2023-01-22T08:19:36.576Z,9.39
2023-01-22T08:21:08.262Z,9.45
2023-01-22T08:22:39.885Z,9.48
2023-01-22T08:24:12.789Z,9.50
2023-01-22T08:25:44.437Z,9.47
2023-01-22T08:27:16.297Z,9.39
2023-01-22T08:28:48.012Z,9.39
2023-01-22T08:30:19.939Z,9.37
2023-01-22T08:31:53.484Z,9.45
2023-01-22T08:33:25.411Z,9.52
2023-01-22T08:34:57.319Z,9.57
2023-01-22T08:36:29.147Z,9.58
2023-01-22T08:38:01.325Z,9.62
2023-01-22T08:39:33.019Z,9.61
2023-01-22T08:41:05.250Z,9.65
2023-01-22T08:42:37.011Z,9.65
2023-01-22T08:44:11.254Z,9.66
2023-01-22T08:45:42.823Z,9.67
2023-01-22T08:47:14.381Z,9.72
2023-01-22T08:48:45.998Z,9.87
2023-01-22T08:50:18.115Z,10.02
2023-01-22T08:51:50.698Z,10.08
2023-01-22T08:53:22.425Z,10.08
2023-01-22T08:54:54.306Z,10.08
2023-01-22T08:56:26.671Z,10.09
2023-01-22T08:57:58.413Z,10.27
2023-01-22T08:59:31.224Z,10.36
2023-01-22T09:01:03.968Z,10.42
2023-01-22T09:02:35.655Z,10.36
2023-01-22T09:04:08.072Z,10.28
2023-01-22T09:05:40.670Z,10.30
2023-01-22T09:07:15.192Z,10.27
2023-01-22T09:08:46.861Z,10.32
2023-01-22T09:10:22.030Z,10.41
2023-01-22T09:11:57.331Z,10.41
2023-01-22T09:13:35.759Z,10.46
2023-01-22T09:15:15.660Z,10.54
2023-01-22T09:16:47.801Z,10.64
2023-01-22T09:18:19.390Z,10.75
2023-01-22T09:19:51.061Z,10.86
2023-01-22T09:21:22.700Z,11.00
2023-01-22T09:22:54.309Z,11.07
2023-01-22T09:24:26.154Z,11.15
2023-01-22T09:25:57.860Z,11.22
2023-01-22T09:27:29.541Z,11.15
2023-01-22T09:29:01.604Z,11.11
2023-01-22T09:30:33.445Z,11.10
2023-01-22T09:32:05.669Z,11.13
2023-01-22T09:33:37.398Z,11.07
2023-01-22T09:35:09.121Z,11.02
2023-01-22T09:36:43.162Z,10.87
2023-01-22T09:38:15.037Z,10.96
2023-01-22T09:39:50.226Z,11.02
2023-01-22T09:41:30.889Z,11.16
2023-01-22T09:43:07.176Z,11.35
2023-01-22T09:44:39.614Z,11.52
2023-01-22T09:46:18.339Z,11.66
2023-01-22T09:47:51.512Z,11.83
2023-01-22T09:49:28.274Z,11.97
2023-01-22T09:51:00.165Z,11.94
2023-01-22T09:52:32.887Z,11.86
2023-01-22T09:54:04.787Z,11.90
2023-01-22T09:55:42.685Z,11.93
2023-01-22T09:57:30.813Z,11.97
2023-01-22T09:59:03.750Z,12.04
2023-01-22T10:00:42.470Z,12.08
2023-01-22T10:02:22.419Z,11.94
2023-01-22T10:04:01.810Z,11.95
2023-01-22T10:05:35.314Z,11.99
2023-01-22T10:07:10.789Z,11.99
2023-01-22T10:09:04.631Z,11.96
2023-01-22T10:10:36.171Z,12.00
2023-01-22T10:12:16.735Z,12.02
2023-01-22T10:13:49.111Z,12.08
2023-01-22T10:15:20.878Z,12.07
2023-01-22T10:16:52.528Z,11.98
2023-01-22T10:18:29.981Z,11.98
2023-01-22T10:20:03.025Z,12.02
2023-01-22T10:21:37.675Z,11.99
2023-01-22T10:23:18.016Z,12.00
2023-01-22T10:24:50.204Z,12.06
2023-01-22T10:26:25.799Z,12.19
2023-01-22T10:27:58.093Z,12.30
2023-01-22T10:29:29.615Z,12.48
2023-01-22T10:31:05.157Z,12.64
2023-01-22T10:32:37.182Z,12.87
2023-01-22T10:34:20.868Z,13.22
2023-01-22T10:35:54.367Z,13.57
2023-01-22T10:37:25.961Z,13.76
2023-01-22T10:39:08.844Z,13.93
2023-01-22T10:40:43.391Z,14.15
2023-01-22T10:42:18.397Z,14.42
2023-01-22T10:43:50.073Z,14.75
2023-01-22T10:45:21.607Z,14.98
2023-01-22T10:46:55.337Z,15.26
2023-01-22T10:48:33.791Z,15.41
2023-01-22T10:50:08.619Z,15.40
2023-01-22T10:51:41.111Z,15.45
2023-01-22T10:53:18.756Z,15.51
2023-01-22T10:54:57.149Z,15.59
2023-01-22T10:56:32.864Z,15.61
2023-01-22T10:58:05.614Z,15.62
2023-01-22T10:59:43.460Z,15.61
2023-01-22T11:01:41.079Z,15.70
2023-01-22T11:03:22.535Z,15.63
2023-01-22T11:04:54.417Z,15.60
2023-01-22T11:06:27.930Z,15.59
2023-01-22T11:08:05.091Z,15.60
2023-01-22T11:09:38.759Z,15.59
2023-01-22T11:11:11.133Z,15.66
2023-01-22T11:12:47.120Z,15.63
2023-01-22T11:14:20.770Z,15.60
2023-01-22T11:16:14.103Z,15.65
2023-01-22T11:17:49.523Z,15.72
2023-01-22T11:19:32.662Z,15.83
2023-01-22T11:21:16.247Z,15.90
2023-01-22T11:22:51.235Z,15.90
2023-01-22T11:24:28.342Z,15.94
2023-01-22T11:26:16.500Z,16.05
2023-01-22T11:27:52.077Z,16.02
2023-01-22T11:29:44.563Z,16.01
2023-01-22T11:31:35.556Z,15.96
2023-01-22T11:33:23.578Z,15.73
2023-01-22T11:34:59.040Z,15.52
2023-01-22T11:36:55.028Z,15.44
2023-01-22T11:38:38.695Z,15.31
2023-01-22T11:40:29.997Z,15.14
2023-01-22T11:42:13.730Z,14.92
2023-01-22T11:43:55.856Z,14.75
2023-01-22T11:45:29.298Z,14.64
2023-01-22T11:47:03.567Z,14.56
2023-01-22T11:48:35.139Z,14.44
2023-01-22T11:50:10.447Z,14.44
2023-01-22T11:51:48.303Z,14.45
2023-01-22T11:53:23.983Z,14.41
2023-01-22T11:55:00.683Z,14.33
2023-01-22T11:56:38.451Z,14.27
2023-01-22T11:58:10.058Z,14.20
2023-01-22T11:59:41.676Z,14.06
2023-01-22T12:01:16.197Z,13.88
2023-01-22T12:03:06.374Z,13.83
2023-01-22T12:04:58.254Z,13.74
2023-01-22T12:06:40.829Z,13.67
2023-01-22T12:08:28.453Z,13.58
2023-01-22T12:10:03.439Z,13.51
2023-01-22T12:11:47.183Z,13.51
2023-01-22T12:13:18.778Z,13.57
2023-01-22T12:14:53.582Z,13.66
2023-01-22T12:16:28.658Z,13.65
2023-01-22T12:18:15.612Z,13.59
2023-01-22T12:19:54.728Z,13.58
2023-01-22T12:21:46.187Z,13.60
2023-01-22T12:23:19.686Z,13.62
2023-01-22T12:25:02.512Z,13.63
2023-01-22T12:26:34.729Z,13.63
2023-01-22T12:28:10.984Z,13.63
2023-01-22T12:29:47.367Z,13.66
2023-01-22T12:31:29.940Z,13.72
2023-01-22T12:33:04.368Z,13.89
2023-01-22T12:34:41.850Z,14.05
2023-01-22T12:36:16.385Z,14.24
2023-01-22T12:37:54.704Z,14.44
2023-01-22T12:39:27.374Z,14.71
2023-01-22T12:41:08.141Z,14.87
2023-01-22T12:42:58.629Z,15.01
2023-01-22T12:44:38.524Z,15.09
2023-01-22T12:46:21.873Z,15.29
2023-01-22T12:47:56.440Z,15.45
2023-01-22T12:49:28.067Z,15.47
2023-01-22T12:50:59.925Z,15.55
2023-01-22T12:52:35.801Z,15.68
2023-01-22T12:54:09.825Z,15.74
2023-01-22T12:55:44.304Z,15.69
2023-01-22T12:57:17.547Z,15.65
2023-01-22T12:58:55.274Z,15.65
2023-01-22T13:00:31.859Z,15.69
2023-01-22T13:02:04.756Z,15.73
2023-01-22T13:03:36.395Z,15.83
2023-01-22T13:05:11.856Z,15.86
2023-01-22T13:06:43.859Z,15.86
2023-01-22T13:08:15.883Z,15.80
2023-01-22T13:09:48.253Z,15.66
2023-01-22T13:11:28.772Z,15.52
2023-01-22T13:13:04.991Z,15.50
2023-01-22T13:14:36.604Z,15.52
2023-01-22T13:16:28.769Z,15.55
2023-01-22T13:18:08.271Z,15.58
2023-01-22T13:19:40.856Z,15.59
2023-01-22T13:21:12.983Z,15.49
2023-01-22T13:22:44.625Z,15.42
2023-01-22T13:24:17.720Z,15.41
2023-01-22T13:25:55.465Z,15.44
2023-01-22T13:27:31.286Z,15.56
2023-01-22T13:29:26.886Z,15.58
2023-01-22T13:31:15.316Z,15.64
2023-01-22T13:32:47.089Z,15.66
2023-01-22T13:34:19.244Z,15.68
2023-01-22T13:35:51.297Z,15.69
2023-01-22T13:37:23.870Z,15.68
2023-01-22T13:38:56.330Z,15.79
2023-01-22T13:40:30.286Z,15.82
2023-01-22T13:42:05.145Z,15.71
2023-01-22T13:43:37.120Z,15.61
2023-01-22T13:45:11.917Z,15.60
2023-01-22T13:46:43.502Z,15.65
2023-01-22T13:48:19.419Z,15.64
2023-01-22T13:49:51.336Z,15.52
2023-01-22T13:51:23.599Z,15.55
2023-01-22T13:52:56.710Z,15.63
2023-01-22T13:54:33.393Z,15.68
2023-01-22T13:56:05.413Z,15.64
2023-01-22T13:57:36.982Z,15.68
2023-01-22T13:59:17.361Z,15.68
2023-01-22T14:00:52.281Z,15.59
2023-01-22T14:02:30.696Z,15.55
2023-01-22T14:04:03.142Z,15.46
2023-01-22T14:05:36.856Z,15.35
2023-01-22T14:07:08.636Z,15.33
2023-01-22T14:08:47.077Z,15.31
2023-01-22T14:10:19.553Z,15.14
2023-01-22T14:11:51.880Z,15.09
2023-01-22T14:13:23.984Z,15.12
2023-01-22T14:14:55.913Z,15.15
2023-01-22T14:16:28.263Z,15.25
2023-01-22T14:18:08.610Z,15.13
2023-01-22T14:19:40.340Z,15.04
2023-01-22T14:21:12.138Z,14.84
2023-01-22T14:22:44.097Z,14.63
2023-01-22T14:24:15.728Z,14.57
2023-01-22T14:25:48.152Z,14.51
2023-01-22T14:27:21.050Z,14.53
2023-01-22T14:28:53.181Z,14.40
2023-01-22T14:30:25.100Z,14.24
2023-01-22T14:31:56.786Z,14.09
2023-01-22T14:33:29.367Z,13.94
2023-01-22T14:35:02.092Z,13.72
2023-01-22T14:36:33.740Z,13.52
2023-01-22T14:38:05.465Z,13.36
2023-01-22T14:39:37.389Z,13.20
2023-01-22T14:41:09.510Z,13.08
2023-01-22T14:42:41.147Z,12.92
2023-01-22T14:44:12.720Z,12.79
2023-01-22T14:45:44.880Z,12.73
2023-01-22T14:47:16.461Z,12.61
2023-01-22T14:48:48.335Z,12.49
2023-01-22T14:50:21.038Z,12.42
2023-01-22T14:51:54.107Z,12.39
2023-01-22T14:53:26.017Z,12.32
2023-01-22T14:54:57.668Z,12.21
2023-01-22T14:56:29.262Z,12.13
2023-01-22T14:58:01.019Z,12.13
2023-01-22T14:59:32.655Z,12.13
2023-01-22T15:01:13.863Z,12.08
2023-01-22T15:02:45.551Z,11.97
2023-01-22T15:04:18.084Z,11.80
2023-01-22T15:05:53.292Z,11.75
2023-01-22T15:07:25.504Z,11.71
2023-01-22T15:08:58.127Z,11.65
2023-01-22T15:10:29.596Z,11.65
2023-01-22T15:12:01.280Z,11.64
2023-01-22T15:13:33.187Z,11.51
2023-01-22T15:15:05.447Z,11.37
2023-01-22T15:16:38.621Z,11.28
2023-01-22T15:18:10.174Z,11.26
2023-01-22T15:19:41.987Z,11.19
2023-01-22T15:21:13.595Z,11.13
2023-01-22T15:22:45.509Z,11.10
2023-01-22T15:24:17.097Z,11.04
2023-01-22T15:26:05.134Z,10.90
2023-01-22T15:27:36.903Z,10.82
2023-01-22T15:29:08.973Z,10.79
2023-01-22T15:30:40.815Z,10.74
2023-01-22T15:32:12.964Z,10.68
2023-01-22T15:33:45.234Z,10.65
2023-01-22T15:35:16.960Z,10.67
2023-01-22T15:36:48.528Z,10.66
2023-01-22T15:38:20.166Z,10.69
2023-01-22T15:39:52.277Z,10.71
2023-01-22T15:41:24.662Z,10.69
2023-01-22T15:42:56.326Z,10.68
2023-01-22T15:44:27.988Z,10.69
2023-01-22T15:45:59.585Z,10.74
2023-01-22T15:47:31.359Z,10.75
2023-01-22T15:49:03.527Z,10.70
2023-01-22T15:50:35.121Z,10.65
2023-01-22T15:52:06.748Z,10.64
2023-01-22T15:53:38.583Z,10.60
2023-01-22T15:55:10.251Z,10.58
2023-01-22T15:56:41.842Z,10.58
2023-01-22T15:58:13.469Z,10.57
2023-01-22T15:59:45.286Z,10.56
2023-01-22T16:01:17.091Z,10.57
2023-01-22T16:02:48.712Z,10.57
2023-01-22T16:04:20.381Z,10.53
2023-01-22T16:05:51.887Z,10.51
2023-01-22T16:07:23.522Z,10.49
2023-01-22T16:08:55.668Z,10.43
2023-01-22T16:10:27.931Z,10.43
2023-01-22T16:12:00.248Z,10.43
2023-01-22T16:13:31.993Z,10.42
2023-01-22T16:15:04.212Z,10.36
2023-01-22T16:16:36.988Z,10.34
2023-01-22T16:18:08.523Z,10.30
2023-01-22T16:19:40.827Z,10.25
2023-01-22T16:21:12.803Z,10.22
2023-01-22T16:22:47.467Z,10.19
2023-01-22T16:24:19.189Z,10.13
2023-01-22T16:25:51.062Z,10.09
2023-01-22T16:27:22.848Z,10.04
2023-01-22T16:28:55.528Z,10.01
2023-01-22T16:30:27.069Z,10.01
2023-01-22T16:31:58.745Z,10.01
2023-01-22T16:33:31.219Z,10.02
2023-01-22T16:35:03.244Z,9.96
2023-01-22T16:36:35.437Z,9.93
2023-01-22T16:38:07.152Z,9.91
2023-01-22T16:39:39.160Z,9.90
2023-01-22T16:41:24.893Z,9.93
2023-01-22T16:43:01.493Z,9.96
2023-01-22T16:44:33.789Z,9.92
2023-01-22T16:46:05.751Z,9.90
2023-01-22T16:47:37.455Z,9.89
2023-01-22T16:49:16.513Z,9.91
2023-01-22T16:50:48.583Z,9.87
2023-01-22T16:52:23.059Z,9.83
2023-01-22T16:53:58.171Z,9.78
2023-01-22T16:55:29.855Z,9.79
2023-01-22T16:57:04.016Z,9.82
2023-01-22T16:58:37.800Z,9.86
2023-01-22T17:00:10.445Z,9.87
2023-01-22T17:01:42.708Z,9.87
2023-01-22T17:03:15.367Z,9.87
2023-01-22T17:04:46.981Z,9.88
2023-01-22T17:06:23.349Z,9.82
2023-01-22T17:07:55.594Z,9.86
2023-01-22T17:09:29.358Z,9.84
2023-01-22T17:11:02.302Z,9.79
2023-01-22T17:12:35.415Z,9.75
2023-01-22T17:14:07.989Z,9.73
2023-01-22T17:15:40.261Z,9.71
2023-01-22T17:17:12.258Z,9.71
2023-01-22T17:18:45.277Z,9.64
2023-01-22T17:20:17.339Z,9.60
2023-01-22T17:21:50.849Z,9.57
2023-01-22T17:23:22.750Z,9.58
2023-01-22T17:24:54.375Z,9.61
2023-01-22T17:26:27.271Z,9.62
2023-01-22T17:27:59.395Z,9.59
2023-01-22T17:29:32.172Z,9.56
2023-01-22T17:31:08.640Z,9.59
2023-01-22T17:32:40.451Z,9.56
2023-01-22T17:34:12.420Z,9.54
2023-01-22T17:35:44.458Z,9.57
2023-01-22T17:37:16.395Z,9.61
2023-01-22T17:38:48.209Z,9.64
2023-01-22T17:40:20.941Z,9.66
2023-01-22T17:41:53.081Z,9.66
2023-01-22T17:43:25.954Z,9.66
2023-01-22T17:44:57.884Z,9.67
2023-01-22T17:46:32.155Z,9.68
2023-01-22T17:48:05.277Z,9.68
2023-01-22T17:49:36.984Z,9.74
2023-01-22T17:51:12.342Z,9.73
2023-01-22T17:52:44.754Z,9.74
2023-01-22T17:54:16.641Z,9.76
2023-01-22T17:55:48.308Z,9.74
2023-01-22T17:57:20.375Z,9.76
2023-01-22T17:58:56.635Z,9.77
2023-01-22T18:00:28.436Z,9.75
2023-01-22T18:02:00.466Z,9.79
2023-01-22T18:03:32.318Z,9.82
2023-01-22T18:05:04.240Z,9.81
2023-01-22T18:06:36.980Z,9.77
2023-01-22T18:08:08.766Z,9.76
2023-01-22T18:09:41.384Z,9.77
2023-01-22T18:11:15.792Z,9.77
2023-01-22T18:12:49.846Z,9.77
2023-01-22T18:14:28.676Z,9.77
2023-01-22T18:16:00.287Z,9.81
2023-01-22T18:17:32.136Z,9.82
2023-01-22T18:19:05.730Z,9.84
2023-01-22T18:20:38.713Z,9.84
2023-01-22T18:22:10.535Z,9.84
2023-01-22T18:23:43.664Z,9.81
2023-01-22T18:25:15.489Z,9.79
2023-01-22T18:26:47.235Z,9.78
2023-01-22T18:28:19.191Z,9.78
2023-01-22T18:29:51.137Z,9.80
2023-01-22T18:31:25.038Z,9.81
2023-01-22T18:32:57.560Z,9.80
2023-01-22T18:34:29.517Z,9.81
2023-01-22T18:36:01.017Z,9.79
2023-01-22T18:37:33.911Z,9.83
2023-01-22T18:39:06.822Z,9.86
2023-01-22T18:40:39.413Z,9.87
2023-01-22T18:42:11.720Z,9.90
2023-01-22T18:43:43.766Z,9.89
2023-01-22T18:45:15.406Z,9.91
2023-01-22T18:46:48.727Z,9.90
2023-01-22T18:48:22.299Z,9.92
2023-01-22T18:49:54.318Z,9.94
2023-01-22T18:51:27.220Z,9.96
2023-01-22T18:53:02.170Z,9.93
2023-01-22T18:54:33.755Z,9.89
2023-01-22T18:56:06.011Z,9.87
2023-01-22T18:57:52.398Z,9.84
2023-01-22T18:59:24.110Z,9.79
2023-01-22T19:00:56.070Z,9.73
2023-01-22T19:02:27.709Z,9.73
2023-01-22T19:04:00.178Z,9.68
2023-01-22T19:05:31.748Z,9.71
2023-01-22T19:07:03.333Z,9.73
2023-01-22T19:08:35.282Z,9.71
2023-01-22T19:10:08.087Z,9.69
2023-01-22T19:11:41.217Z,9.70
2023-01-22T19:13:13.425Z,9.71
2023-01-22T19:14:45.075Z,9.68
2023-01-22T19:16:17.086Z,9.64
2023-01-22T19:17:49.065Z,9.65
2023-01-22T19:19:21.616Z,9.64
2023-01-22T19:20:53.294Z,9.63
2023-01-22T19:22:25.269Z,9.66
2023-01-22T19:23:57.512Z,9.68
2023-01-22T19:25:29.078Z,9.68
2023-01-22T19:27:01.584Z,9.70
2023-01-22T19:28:33.726Z,9.72
2023-01-22T19:30:05.896Z,9.72
2023-01-22T19:31:38.502Z,9.74
2023-01-22T19:33:10.446Z,9.74
2023-01-22T19:34:42.679Z,9.76
2023-01-22T19:36:14.259Z,9.71
2023-01-22T19:37:45.777Z,9.72
2023-01-22T19:39:17.461Z,9.71
2023-01-22T19:40:49.175Z,9.69
2023-01-22T19:42:21.038Z,9.66
2023-01-22T19:43:53.085Z,9.65
2023-01-22T19:45:24.655Z,9.63
2023-01-22T19:46:56.247Z,9.56
2023-01-22T19:48:27.968Z,9.54
2023-01-22T19:49:59.679Z,9.56
2023-01-22T19:51:35.681Z,9.54
2023-01-22T19:53:09.872Z,9.53
2023-01-22T19:54:48.193Z,9.52
2023-01-22T19:56:40.099Z,9.53
2023-01-22T19:58:11.699Z,9.51
2023-01-22T19:59:43.243Z,9.52
2023-01-22T20:01:16.704Z,9.52
2023-01-22T20:02:48.394Z,9.52
2023-01-22T20:04:25.316Z,9.54
2023-01-22T20:05:56.901Z,9.51
2023-01-22T20:07:28.898Z,9.51
2023-01-22T20:09:00.495Z,9.48
2023-01-22T20:10:33.052Z,9.46
2023-01-22T20:12:05.536Z,9.46
2023-01-22T20:13:37.318Z,9.45
2023-01-22T20:15:11.310Z,9.47
2023-01-22T20:16:44.336Z,9.45
2023-01-22T20:18:16.084Z,9.46
2023-01-22T20:19:47.712Z,9.46
2023-01-22T20:21:19.649Z,9.46
2023-01-22T20:22:52.432Z,9.45
2023-01-22T20:24:23.965Z,9.43
2023-01-22T20:25:56.002Z,9.41
2023-01-22T20:27:27.717Z,9.40
2023-01-22T20:28:59.303Z,9.38